Bennington, KS

6:21 PM CDT on September 21, 2014 (GMT -0500)
ERC Field | Change Station
CLOSE
Current Station
Personal Weather Station
Location: Minneapolis, KS
Elevation: 1309 ft
Nearby Weather Stations

Elev 1309 ft 39.10 °N, 97.61 °W | Updated 9 minutes ago

Clear
Clear
82.2 °F
Feels Like 81 °F
N
4.7
Wind Variable Wind from North

Today
High -- | Low -- °F
--% Chance of Precip.
Yesterday
High -- | Low -- °F
Precip. -- in
7:17 AM 7:28 PM
Waning Crescent, 5% visible
Pressure 30.18 in
Visibility 10.0 miles
Clouds Clear
Heat Index 81 °F
Dew Point 47 °F
Humidity 29%
Rainfall 0.00 in
Snow Depth Not available.
UV 1 out of 12
Pollen 5.50 out of 12
Air Quality Not available.
Flu Activity Not available.
METAR KSLN 212253Z 02011KT 10SM CLR 26/06 A3020 RMK AO2 SLP218 T02560056

More Conditions Fewer Conditions

Pressure 30.18 in
Visibility 10.0 miles
Clouds Clear
Heat Index 81 °F
Dew Point 47 °F
Humidity 29%
Rainfall 0.00 in
Snow Depth Not available.
UV 1 out of 12
Pollen 5.50 out of 12
Air Quality Not available.
Flu Activity Not available.
METAR KSLN 212253Z 02011KT 10SM CLR 26/06 A3020 RMK AO2 SLP218 T02560056

More Conditions Fewer Conditions

10-Day Weather Forecast

Almanac

Astronomy

Sep. 21, 2014 Rise Set
Actual Time 7:17 AM CDT 7:28 PM CDT
Civil Twilight 6:50 AM CDT 7:55 PM CDT
Nautical Twilight 6:19 AM CDT 8:26 PM CDT
Astronomical Twilight 5:47 AM CDT 8:58 PM CDT
Moon 4:53 AM CDT 6:05 PM CDT
Length of Visible Light 13h 05m
Length of Day
12h 11m
Tomorrow will be 2m 31s shorter.
Waning Crescent, 5% of the Moon is Illuminated
Today
Waning Crescent
Sep 24
New
Oct 1
First Quarter
Oct 8
Full
Oct 15
Last Quarter

Today's Extremes

State Highs State Lows

Community

WunderPhotos

Upload Photos

1,755,292 photos uploaded!

WunderBlogs® & News

Nearby

Snow Depth

Station Depth Elevation
No new snow has been reported.

Earthquake Activity

City Distance Mag. Time & Date
No recent earthquake activity has been reported nearby.
Minimum magnitude displayed is 2.5.

Coastal Water Temperatures

Place Temperature
No Stations Reporting

Nearby Weather Stations